Time;durP1;ratioP1;P1;durP2;ratioP2;P2;SDS_P1;SDS_P2;PMS_P1;PMS_P2;Temp;Humidity;BMP_temperature;BMP_pressure;BME280_temperature;BME280_humidity;BME280_pressure;Samples;Min_cycle;Max_cycle;Signal;HPM_P1;HPM_P2
2023/07/06 00:00:59;;;;;;;7.80;5.07;;;12.50;99.90;;;;;;5032950;28;20111;-69
2023/07/06 00:03:25;;;;;;;9.57;5.50;;;12.50;99.90;;;;;;5033223;28;20063;-68
2023/07/06 00:05:51;;;;;;;9.40;5.20;;;12.60;99.90;;;;;;5032874;28;20358;-68
2023/07/06 00:08:17;;;;;;;7.97;4.83;;;12.60;99.90;;;;;;5033038;28;20280;-68
2023/07/06 00:10:44;;;;;;;11.30;5.00;;;12.60;99.90;;;;;;5032758;28;20061;-70
2023/07/06 00:13:11;;;;;;;8.43;5.10;;;12.50;99.90;;;;;;5032024;28;20128;-69
2023/07/06 00:15:37;;;;;;;7.13;4.70;;;12.50;99.90;;;;;;5032908;28;20280;-68
2023/07/06 00:18:04;;;;;;;6.93;4.70;;;12.50;99.90;;;;;;5032642;28;20283;-69
2023/07/06 00:20:32;;;;;;;8.60;4.97;;;12.50;99.90;;;;;;5032812;28;20272;-69
2023/07/06 00:22:58;;;;;;;9.00;5.30;;;12.50;99.90;;;;;;5032710;28;20426;-68
2023/07/06 00:25:27;;;;;;;12.60;5.20;;;12.40;99.90;;;;;;5032528;28;20284;-68
2023/07/06 00:27:58;;;;;;;7.40;5.27;;;12.50;99.90;;;;;;5032609;28;20276;-69
2023/07/06 00:30:40;;;;;;;10.93;6.13;;;12.50;99.90;;;;;;5032845;28;20644;-68
2023/07/06 00:33:11;;;;;;;9.23;5.13;;;12.50;99.90;;;;;;5031223;28;20760;-68
2023/07/06 00:35:40;;;;;;;12.30;6.17;;;12.50;99.90;;;;;;5033269;28;20375;-68
2023/07/06 00:38:10;;;;;;;13.67;6.20;;;12.50;99.90;;;;;;5038969;28;20640;-68
2023/07/06 00:40:39;;;;;;;10.37;6.33;;;12.50;99.90;;;;;;5038971;28;20779;-68
2023/07/06 00:43:06;;;;;;;10.17;5.53;;;12.40;99.90;;;;;;5037714;28;20346;-69
2023/07/06 00:45:34;;;;;;;8.53;5.90;;;12.40;99.90;;;;;;5038132;28;20312;-69
2023/07/06 00:48:01;;;;;;;9.47;6.10;;;12.40;99.90;;;;;;5038926;28;20368;-69
2023/07/06 00:50:29;;;;;;;8.50;5.80;;;12.40;99.90;;;;;;5039153;28;20295;-69
2023/07/06 00:53:06;;;;;;;8.87;5.40;;;12.40;99.90;;;;;;5037727;28;20311;-69
2023/07/06 00:55:36;;;;;;;8.93;5.80;;;12.30;99.90;;;;;;5037782;28;20276;-69
2023/07/06 00:58:19;;;;;;;11.33;5.90;;;12.30;99.90;;;;;;5038155;28;20283;-68
2023/07/06 01:00:47;;;;;;;11.47;6.20;;;12.30;99.90;;;;;;5039208;28;20278;-69
2023/07/06 01:03:19;;;;;;;10.20;5.83;;;12.30;99.90;;;;;;5038821;28;21149;-69
2023/07/06 01:05:49;;;;;;;9.93;6.03;;;12.20;99.90;;;;;;5038245;28;20854;-69
2023/07/06 01:08:19;;;;;;;10.10;6.67;;;12.30;99.90;;;;;;5037370;28;20731;-69
2023/07/06 01:10:46;;;;;;;10.37;6.43;;;12.30;99.90;;;;;;5039017;28;20300;-69
2023/07/06 01:13:12;;;;;;;6.83;5.47;;;12.20;99.90;;;;;;5038680;28;20334;-68
2023/07/06 01:15:49;;;;;;;9.83;6.47;;;12.30;99.90;;;;;;5038950;28;20315;-68
2023/07/06 01:18:33;;;;;;;10.87;5.70;;;12.30;99.90;;;;;;5038472;28;20485;-68
2023/07/06 01:21:19;;;;;;;9.17;5.37;;;12.30;99.90;;;;;;5037214;28;20284;-68
2023/07/06 01:24:01;;;;;;;8.63;6.00;;;12.20;99.90;;;;;;5037961;28;20822;-68
2023/07/06 01:26:45;;;;;;;9.97;5.80;;;12.30;99.90;;;;;;5039016;28;20299;-68
2023/07/06 01:29:54;;;;;;;9.97;5.80;;;12.20;99.90;;;;;;5037627;28;20378;-68
2023/07/06 01:32:26;;;;;;;10.20;6.50;;;12.20;99.90;;;;;;5038575;28;20320;-68
2023/07/06 01:35:00;;;;;;;9.07;6.13;;;12.20;99.90;;;;;;5037991;28;20280;-68
2023/07/06 01:37:32;;;;;;;8.45;6.05;;;12.20;99.90;;;;;;5037730;28;20314;-68
2023/07/06 01:39:58;;;;;;;8.43;6.20;;;12.20;99.90;;;;;;5037529;28;20052;-75
2023/07/06 01:42:30;;;;;;;8.63;5.60;;;12.20;99.90;;;;;;5037668;28;20724;-69
2023/07/06 01:45:08;;;;;;;7.83;6.03;;;12.20;99.90;;;;;;5038666;28;20057;-68
2023/07/06 01:47:42;;;;;;;8.30;5.70;;;12.10;99.90;;;;;;5036707;28;20780;-68
2023/07/06 01:50:11;;;;;;;9.07;6.03;;;12.10;99.90;;;;;;5035216;28;20296;-69
2023/07/06 01:52:51;;;;;;;7.03;5.10;;;12.10;99.90;;;;;;5035506;28;20279;-68
2023/07/06 01:55:36;;;;;;;8.80;5.70;;;12.10;99.90;;;;;;5035169;28;20332;-69
2023/07/06 01:58:24;;;;;;;11.00;6.38;;;12.10;99.90;;;;;;5035381;28;20307;-69
2023/07/06 02:00:56;;;;;;;8.77;5.60;;;12.00;99.90;;;;;;5035515;28;20037;-68
2023/07/06 02:03:24;;;;;;;8.33;5.87;;;12.00;99.90;;;;;;5035172;28;20276;-68
2023/07/06 02:05:51;;;;;;;9.73;6.10;;;12.00;99.90;;;;;;5035490;28;20307;-68
2023/07/06 02:08:18;;;;;;;7.73;5.43;;;12.00;99.90;;;;;;5034999;28;20311;-68
2023/07/06 02:10:44;;;;;;;7.83;5.97;;;12.00;99.90;;;;;;5033841;28;20722;-68
2023/07/06 02:13:10;;;;;;;10.40;6.50;;;12.00;99.90;;;;;;5017500;28;20315;-69
2023/07/06 02:15:36;;;;;;;11.30;5.90;;;12.00;99.90;;;;;;5034866;28;20045;-68
2023/07/06 02:18:02;;;;;;;9.33;6.63;;;12.00;99.90;;;;;;5034850;28;20537;-72
2023/07/06 02:20:28;;;;;;;12.80;7.13;;;12.00;99.90;;;;;;5035142;28;20045;-68
2023/07/06 02:22:54;;;;;;;9.13;6.63;;;11.90;99.90;;;;;;5034569;28;20292;-68
2023/07/06 02:25:20;;;;;;;9.33;6.73;;;12.00;99.90;;;;;;5034708;28;20426;-68
2023/07/06 02:27:46;;;;;;;15.53;7.37;;;12.00;99.90;;;;;;5033912;28;20060;-68
2023/07/06 02:30:12;;;;;;;10.97;7.80;;;12.00;99.90;;;;;;5034460;28;20300;-68
2023/07/06 02:32:41;;;;;;;12.40;7.40;;;11.90;99.90;;;;;;5034767;28;20795;-68
2023/07/06 02:35:09;;;;;;;10.80;6.63;;;11.90;99.90;;;;;;5034523;28;20041;-69
2023/07/06 02:37:38;;;;;;;10.33;6.83;;;11.90;99.90;;;;;;5033719;28;20371;-68
2023/07/06 02:40:09;;;;;;;11.00;7.60;;;11.90;99.90;;;;;;5033132;28;20676;-72
2023/07/06 02:42:35;;;;;;;14.50;7.53;;;11.90;99.90;;;;;;5034507;28;20334;-68
2023/07/06 02:45:03;;;;;;;11.60;8.03;;;11.90;99.90;;;;;;5034677;28;20700;-68
2023/07/06 02:47:29;;;;;;;11.13;7.83;;;11.90;99.90;;;;;;5034314;28;20280;-68
2023/07/06 02:49:55;;;;;;;10.43;7.00;;;11.90;99.90;;;;;;5034659;28;20342;-68
2023/07/06 02:52:21;;;;;;;11.47;7.30;;;11.90;99.90;;;;;;5034168;28;20280;-68
2023/07/06 02:54:47;;;;;;;11.33;8.23;;;11.90;99.90;;;;;;5034387;28;20037;-68
2023/07/06 02:57:13;;;;;;;16.17;8.63;;;11.90;99.90;;;;;;5032928;28;20049;-68
2023/07/06 02:59:38;;;;;;;16.23;9.00;;;11.90;99.90;;;;;;5033921;28;20115;-68
2023/07/06 03:02:04;;;;;;;10.93;8.57;;;12.00;99.90;;;;;;5034181;28;20055;-68
2023/07/06 03:04:31;;;;;;;14.10;9.10;;;12.00;99.90;;;;;;5033953;28;20128;-68
2023/07/06 03:06:57;;;;;;;13.50;8.50;;;12.00;99.90;;;;;;5034250;28;20338;-68
2023/07/06 03:09:23;;;;;;;11.70;8.70;;;12.00;99.90;;;;;;5032617;28;20280;-68
2023/07/06 03:11:52;;;;;;;12.43;9.33;;;12.10;99.90;;;;;;5032868;28;20042;-68
2023/07/06 03:14:21;;;;;;;14.60;8.33;;;12.10;99.90;;;;;;5033799;28;20288;-68
2023/07/06 03:16:53;;;;;;;13.67;8.57;;;12.20;99.90;;;;;;5033919;28;20280;-68
2023/07/06 03:19:19;;;;;;;13.83;9.47;;;12.20;99.90;;;;;;5033789;28;20774;-69
2023/07/06 03:21:46;;;;;;;14.10;9.70;;;12.20;99.90;;;;;;5033761;28;20284;-68
2023/07/06 03:24:12;;;;;;;16.23;8.23;;;12.30;99.90;;;;;;5033390;28;20294;-69
2023/07/06 03:26:41;;;;;;;15.80;9.00;;;12.30;99.90;;;;;;5033740;28;20284;-68
2023/07/06 03:29:08;;;;;;;19.07;9.40;;;12.30;99.90;;;;;;5033930;28;20280;-67
2023/07/06 03:31:35;;;;;;;14.40;8.83;;;12.30;99.90;;;;;;5033267;28;20304;-67
2023/07/06 03:34:02;;;;;;;16.17;8.80;;;12.40;99.90;;;;;;5033628;28;20363;-67
2023/07/06 03:36:28;;;;;;;11.60;8.70;;;12.40;99.90;;;;;;5033264;28;20272;-67
2023/07/06 03:38:53;;;;;;;15.27;8.60;;;12.40;99.90;;;;;;5033550;28;20291;-67
2023/07/06 03:41:19;;;;;;;13.43;9.40;;;12.40;99.90;;;;;;5033189;28;20080;-68
2023/07/06 03:43:45;;;;;;;15.00;9.00;;;12.50;99.90;;;;;;5033450;28;20045;-67
2023/07/06 03:46:14;;;;;;;14.73;8.83;;;12.50;99.90;;;;;;5033348;28;20053;-68
2023/07/06 03:48:47;;;;;;;12.07;8.37;;;12.50;99.90;;;;;;5033357;28;20331;-68
2023/07/06 03:51:13;;;;;;;14.70;9.00;;;12.60;99.90;;;;;;5033217;28;20391;-74
2023/07/06 03:53:39;;;;;;;14.30;8.13;;;12.60;99.90;;;;;;5032116;28;20330;-68
2023/07/06 03:56:07;;;;;;;13.93;7.73;;;12.60;99.90;;;;;;5033312;28;20284;-67
2023/07/06 03:58:33;;;;;;;12.70;8.10;;;12.60;99.90;;;;;;5033083;28;20107;-68
2023/07/06 04:00:59;;;;;;;13.23;8.47;;;12.70;99.90;;;;;;5033091;28;20287;-68
2023/07/06 04:03:31;;;;;;;15.30;8.53;;;12.70;99.90;;;;;;5032788;28;20284;-68
2023/07/06 04:05:57;;;;;;;13.57;8.50;;;12.70;99.90;;;;;;5032803;28;20512;-68
2023/07/06 04:08:23;;;;;;;12.37;8.50;;;12.70;99.90;;;;;;5031775;28;20299;-68
2023/07/06 04:10:49;;;;;;;12.03;7.97;;;12.70;99.90;;;;;;5031931;28;20300;-68
2023/07/06 04:13:16;;;;;;;12.93;8.53;;;12.70;99.90;;;;;;5031855;28;20049;-74
2023/07/06 04:15:46;;;;;;;13.03;8.37;;;12.80;99.90;;;;;;5032987;28;20291;-68
2023/07/06 04:18:12;;;;;;;13.43;8.03;;;12.80;99.90;;;;;;5033017;28;20276;-68
2023/07/06 04:20:38;;;;;;;16.93;7.97;;;12.80;99.90;;;;;;5032455;28;20284;-68
2023/07/06 04:23:04;;;;;;;11.03;7.77;;;12.80;99.90;;;;;;5031260;28;20814;-68
2023/07/06 04:25:33;;;;;;;12.43;8.00;;;12.80;99.90;;;;;;5031627;28;20299;-68
2023/07/06 04:28:05;;;;;;;16.03;7.80;;;12.80;99.90;;;;;;5032908;28;20640;-68
2023/07/06 04:30:33;;;;;;;18.20;8.60;;;12.80;99.90;;;;;;5032575;28;20327;-68
2023/07/06 04:33:00;;;;;;;14.40;8.13;;;12.80;99.90;;;;;;5032868;28;20283;-68
2023/07/06 04:35:26;;;;;;;12.83;8.40;;;12.80;99.90;;;;;;5032475;28;20382;-68
2023/07/06 04:37:53;;;;;;;14.90;8.57;;;12.80;99.90;;;;;;5032877;28;20714;-68
2023/07/06 04:40:21;;;;;;;17.37;8.30;;;12.90;99.90;;;;;;5032492;28;20272;-75
2023/07/06 04:42:53;;;;;;;15.77;8.20;;;12.90;99.90;;;;;;5031512;28;20288;-68
2023/07/06 04:45:21;;;;;;;18.23;8.80;;;13.00;99.90;;;;;;5032786;28;20272;-73
2023/07/06 04:47:47;;;;;;;13.97;9.20;;;13.10;99.90;;;;;;5031223;28;20772;-67
2023/07/06 04:50:25;;;;;;;15.03;8.93;;;13.20;99.90;;;;;;5032613;28;20296;-68
2023/07/06 04:52:55;;;;;;;16.33;9.37;;;13.20;99.90;;;;;;5015691;28;20296;-68
2023/07/06 04:55:23;;;;;;;18.10;8.57;;;13.40;99.90;;;;;;5031440;28;20396;-75
2023/07/06 04:57:54;;;;;;;13.20;8.67;;;13.50;99.90;;;;;;5032663;28;20338;-68
2023/07/06 05:00:26;;;;;;;17.53;9.40;;;13.50;99.90;;;;;;5032624;28;20277;-68
2023/07/06 05:02:54;;;;;;;20.57;10.30;;;13.60;99.90;;;;;;5031538;28;20284;-68
2023/07/06 05:05:20;;;;;;;16.97;9.87;;;13.70;99.90;;;;;;5032443;28;20319;-68
2023/07/06 05:07:46;;;;;;;16.87;9.87;;;13.90;99.90;;;;;;5032169;28;20287;-68
2023/07/06 05:10:13;;;;;;;17.63;8.90;;;14.00;99.90;;;;;;5031033;28;20292;-67
2023/07/06 05:12:41;;;;;;;19.53;9.47;;;14.10;99.90;;;;;;5032171;28;20280;-72
2023/07/06 05:15:08;;;;;;;16.17;9.87;;;14.20;99.90;;;;;;5032018;28;20780;-72
2023/07/06 05:17:33;;;;;;;15.40;9.37;;;14.30;99.90;;;;;;5032034;28;20284;-72
2023/07/06 05:19:59;;;;;;;21.43;9.03;;;14.50;99.90;;;;;;5031501;28;20311;-72
2023/07/06 05:22:26;;;;;;;17.63;8.63;;;14.60;99.90;;;;;;5032798;28;20494;-73
2023/07/06 05:24:52;;;;;;;16.80;9.17;;;14.70;99.90;;;;;;5035266;28;20166;-72
2023/07/06 05:27:19;;;;;;;16.33;9.17;;;14.80;99.90;;;;;;5036120;28;20280;-72
2023/07/06 05:29:45;;;;;;;18.63;8.93;;;14.90;99.90;;;;;;5034440;28;20371;-72
2023/07/06 05:32:10;;;;;;;16.77;9.90;;;15.00;99.90;;;;;;5035882;28;20287;-71
2023/07/06 05:34:36;;;;;;;15.23;8.60;;;15.20;99.90;;;;;;5035690;28;20054;-72
2023/07/06 05:37:03;;;;;;;14.97;8.43;;;15.30;99.90;;;;;;5035914;28;20386;-69
2023/07/06 05:39:29;;;;;;;17.37;9.47;;;15.40;99.90;;;;;;5034568;28;20125;-69
2023/07/06 05:41:55;;;;;;;17.60;9.03;;;15.60;99.90;;;;;;5034494;28;20050;-70
2023/07/06 05:44:21;;;;;;;15.00;8.47;;;15.70;99.90;;;;;;5035654;28;20120;-68
2023/07/06 05:46:46;;;;;;;16.90;8.43;;;15.80;99.90;;;;;;5035648;28;20064;-68
2023/07/06 05:49:12;;;;;;;15.70;8.40;;;16.00;99.90;;;;;;5035669;28;20485;-70
2023/07/06 05:51:38;;;;;;;13.50;8.17;;;16.10;99.90;;;;;;5033954;28;20119;-69
2023/07/06 05:54:03;;;;;;;17.10;7.57;;;16.40;99.90;;;;;;5035667;28;20081;-69
2023/07/06 05:56:31;;;;;;;14.73;7.83;;;17.30;99.90;;;;;;5035198;28;20394;-70
2023/07/06 05:58:59;;;;;;;17.33;8.10;;;18.40;99.90;;;;;;5034471;28;20050;-73
2023/07/06 06:01:25;;;;;;;12.17;6.00;;;19.50;99.90;;;;;;5034205;28;20103;-68
2023/07/06 06:03:52;;;;;;;12.50;7.17;;;20.40;99.90;;;;;;5035065;28;20049;-67
2023/07/06 06:06:21;;;;;;;12.10;7.60;;;21.30;99.90;;;;;;5034955;28;20049;-67
2023/07/06 06:08:47;;;;;;;12.30;5.90;;;22.20;99.90;;;;;;5034992;28;20049;-72
2023/07/06 06:11:15;;;;;;;10.80;5.40;;;22.90;99.90;;;;;;5035235;28;20041;-72
2023/07/06 06:13:43;;;;;;;11.60;5.80;;;23.50;99.90;;;;;;5034953;28;20060;-72
2023/07/06 06:16:12;;;;;;;15.97;7.63;;;23.70;99.90;;;;;;5034074;28;20095;-72
2023/07/06 06:18:39;;;;;;;12.97;5.30;;;24.20;99.90;;;;;;5033803;28;20053;-71
2023/07/06 06:21:10;;;;;;;10.20;5.50;;;24.70;99.90;;;;;;5034728;28;20132;-72
2023/07/06 06:23:36;;;;;;;10.83;5.40;;;25.20;99.90;;;;;;5034867;28;20080;-72
2023/07/06 06:26:02;;;;;;;11.93;4.80;;;25.70;99.90;;;;;;5034894;28;20485;-72
2023/07/06 06:28:28;;;;;;;12.83;5.17;;;26.20;99.90;;;;;;5034891;28;20055;-71
2023/07/06 06:30:55;;;;;;;14.93;5.10;;;26.60;99.90;;;;;;5034446;28;20049;-73
2023/07/06 06:33:21;;;;;;;10.90;4.60;;;27.10;99.90;;;;;;5033300;28;20500;-73
2023/07/06 06:35:47;;;;;;;11.47;5.27;;;27.60;99.90;;;;;;5033963;28;20045;-72
2023/07/06 06:38:14;;;;;;;10.83;4.60;;;27.90;99.90;;;;;;5033545;28;20046;-73
2023/07/06 06:40:40;;;;;;;9.03;4.00;;;28.20;99.90;;;;;;5033375;28;20053;-73
2023/07/06 06:43:06;;;;;;;12.43;4.65;;;28.30;99.90;;;;;;5034372;28;20132;-73
2023/07/06 06:45:32;;;;;;;12.02;4.35;;;28.40;99.90;;;;;;5033581;28;20464;-71
2023/07/06 06:47:58;;;;;;;14.75;4.85;;;28.50;99.90;;;;;;5034476;28;20058;-68
2023/07/06 06:50:24;;;;;;;10.23;3.88;;;28.90;99.90;;;;;;5034377;28;20091;-73
2023/07/06 06:52:50;;;;;;;8.23;4.35;;;29.10;99.90;;;;;;5032529;28;20054;-72
2023/07/06 06:55:17;;;;;;;8.55;3.92;;;29.20;99.90;;;;;;5042666;28;20057;-73
2023/07/06 06:57:43;;;;;;;11.68;4.45;;;29.30;98.60;;;;;;5033794;28;20551;-73
2023/07/06 07:00:10;;;;;;;8.32;3.00;;;29.30;94.90;;;;;;5033512;28;20084;-80
2023/07/06 07:02:39;;;;;;;8.45;3.65;;;29.20;93.00;;;;;;5033058;28;20432;-75
2023/07/06 07:05:06;;;;;;;9.50;3.50;;;29.30;92.00;;;;;;5049423;28;20061;-73
2023/07/06 07:07:31;;;;;;;12.27;3.80;;;29.10;90.70;;;;;;5034094;28;20135;-74
2023/07/06 07:09:57;;;;;;;8.40;3.65;;;29.40;89.60;;;;;;5033851;28;20180;-75
2023/07/06 07:12:25;;;;;;;10.55;4.10;;;29.70;88.60;;;;;;5049712;28;20090;-73
2023/07/06 07:14:50;;;;;;;10.35;4.03;;;30.10;86.80;;;;;;5032848;28;20057;-73
2023/07/06 07:17:16;;;;;;;8.07;3.95;;;30.10;78.80;;;;;;5034014;28;20045;-77
2023/07/06 07:19:42;;;;;;;7.32;3.38;;;30.40;75.40;;;;;;5033689;28;20045;-71
2023/07/06 07:22:08;;;;;;;7.95;2.90;;;30.50;74.00;;;;;;5032595;28;20544;-71
2023/07/06 07:24:33;;;;;;;8.65;3.53;;;30.80;65.80;;;;;;5033892;28;20050;-71
2023/07/06 07:27:04;;;;;;;9.68;3.30;;;30.60;66.70;;;;;;5033308;28;20132;-72
2023/07/06 07:29:30;;;;;;;8.73;3.20;;;30.60;64.90;;;;;;5032781;28;20053;-70
2023/07/06 07:31:56;;;;;;;7.35;2.65;;;30.90;62.90;;;;;;5033420;28;20049;-70
2023/07/06 07:34:21;;;;;;;6.53;2.65;;;31.00;63.70;;;;;;5034002;28;20047;-71
2023/07/06 07:36:47;;;;;;;9.40;2.78;;;31.20;61.60;;;;;;5032089;28;20477;-71
2023/07/06 07:39:16;;;;;;;9.98;2.58;;;30.90;58.60;;;;;;5033813;28;20045;-71
2023/07/06 07:41:45;;;;;;;8.57;2.70;;;29.90;59.00;;;;;;5033310;28;20037;-71
2023/07/06 07:44:11;;;;;;;6.13;2.67;;;29.00;62.40;;;;;;5033795;28;20064;-71
2023/07/06 07:46:37;;;;;;;7.97;2.85;;;28.30;65.40;;;;;;5032597;28;20041;-70
2023/07/06 07:49:03;;;;;;;6.03;2.83;;;27.40;65.40;;;;;;5033222;28;20053;-70
2023/07/06 07:51:31;;;;;;;7.90;2.70;;;26.50;70.20;;;;;;5033323;28;20088;-69
2023/07/06 07:53:57;;;;;;;6.63;2.92;;;25.70;77.60;;;;;;5033159;28;20046;-70
2023/07/06 07:56:25;;;;;;;8.88;3.00;;;26.20;89.10;;;;;;5033213;28;20203;-70
2023/07/06 07:58:51;;;;;;;6.13;2.28;;;27.30;85.90;;;;;;5032768;28;20397;-70
2023/07/06 08:01:20;;;;;;;9.45;2.67;;;28.50;77.80;;;;;;5032270;28;20050;-70
2023/07/06 08:03:46;;;;;;;5.50;2.13;;;29.00;67.10;;;;;;5031975;28;20131;-71
2023/07/06 08:06:16;;;;;;;5.85;2.15;;;28.70;60.10;;;;;;5032138;28;20046;-70
2023/07/06 08:08:43;;;;;;;5.13;2.10;;;28.80;64.10;;;;;;5033048;28;20496;-70
2023/07/06 08:11:14;;;;;;;6.70;2.60;;;29.10;62.20;;;;;;5033323;28;20389;-69
2023/07/06 08:13:40;;;;;;;7.03;2.00;;;28.40;61.60;;;;;;5032897;28;20456;-70
2023/07/06 08:16:06;;;;;;;6.05;2.20;;;27.70;61.90;;;;;;5032782;28;20235;-70
2023/07/06 08:18:32;;;;;;;5.47;2.10;;;27.70;61.50;;;;;;5033108;28;20041;-69
2023/07/06 08:21:00;;;;;;;6.65;2.17;;;27.50;64.20;;;;;;5032511;28;20041;-70
2023/07/06 08:23:28;;;;;;;6.90;2.20;;;27.00;65.10;;;;;;5033187;28;20056;-70
2023/07/06 08:25:54;;;;;;;6.75;2.65;;;26.60;67.50;;;;;;5032657;28;20041;-70
2023/07/06 08:28:29;;;;;;;5.30;2.22;;;26.40;65.90;;;;;;5032946;28;20128;-69
2023/07/06 08:30:55;;;;;;;7.57;2.55;;;26.00;76.60;;;;;;5032666;28;20091;-70
2023/07/06 08:33:21;;;;;;;6.18;2.00;;;26.30;77.80;;;;;;5048213;28;20046;-70
2023/07/06 08:35:47;;;;;;;4.05;1.85;;;26.80;74.10;;;;;;5032584;28;20049;-72
2023/07/06 08:38:14;;;;;;;6.03;2.38;;;26.90;68.40;;;;;;5032843;28;20041;-70
2023/07/06 08:40:41;;;;;;;11.30;2.30;;;26.50;63.80;;;;;;5032857;28;20102;-66
2023/07/06 08:43:19;;;;;;;4.70;2.05;;;26.40;68.60;;;;;;5032485;28;20047;-65
2023/07/06 08:45:48;;;;;;;5.95;2.15;;;26.80;71.40;;;;;;5032857;28;20049;-69
2023/07/06 08:48:18;;;;;;;3.38;1.60;;;27.10;66.80;;;;;;5032667;28;20440;-67
2023/07/06 08:50:52;;;;;;;3.95;1.95;;;27.40;61.60;;;;;;5031887;28;20392;-66
2023/07/06 08:53:20;;;;;;;7.80;2.38;;;27.50;62.60;;;;;;5029819;28;20538;-66
2023/07/06 08:55:49;;;;;;;5.57;2.20;;;27.50;64.20;;;;;;5032096;28;20493;-69
2023/07/06 08:58:24;;;;;;;4.60;1.95;;;27.20;61.20;;;;;;5034462;28;20056;-73
2023/07/06 09:00:52;;;;;;;6.38;2.15;;;27.00;63.90;;;;;;5035996;28;20049;-74
2023/07/06 09:03:18;;;;;;;3.38;1.60;;;26.60;59.40;;;;;;5035482;28;20065;-71
2023/07/06 09:05:47;;;;;;;4.07;1.50;;;26.30;59.30;;;;;;5036152;28;20448;-74
2023/07/06 09:08:17;;;;;;;4.30;1.85;;;25.80;58.60;;;;;;5035613;28;20543;-75
2023/07/06 09:10:43;;;;;;;3.00;1.50;;;25.50;59.10;;;;;;5036367;28;20045;-74
2023/07/06 09:13:22;;;;;;;4.72;1.90;;;25.20;59.20;;;;;;5036136;28;20128;-75
2023/07/06 09:15:54;;;;;;;4.97;1.90;;;24.90;69.40;;;;;;5036552;28;20064;-75
2023/07/06 09:18:20;;;;;;;5.13;1.80;;;24.60;64.80;;;;;;5036559;28;20084;-69
2023/07/06 09:20:49;;;;;;;6.97;2.38;;;24.50;67.30;;;;;;5036293;28;20087;-73
2023/07/06 09:23:16;;;;;;;6.18;1.75;;;24.30;68.30;;;;;;5036376;28;20065;-73
2023/07/06 09:25:43;;;;;;;5.43;1.70;;;24.30;72.30;;;;;;5036171;28;20045;-69
2023/07/06 09:28:23;;;;;;;3.73;1.67;;;24.20;71.80;;;;;;5034805;28;20050;-70
2023/07/06 09:30:50;;;;;;;3.63;1.37;;;24.10;76.60;;;;;;5036077;28;20042;-69
2023/07/06 09:33:17;;;;;;;3.90;1.70;;;24.00;75.60;;;;;;5035663;28;20058;-70
2023/07/06 09:35:43;;;;;;;5.63;1.60;;;23.80;71.90;;;;;;5035872;28;20453;-75
2023/07/06 09:38:14;;;;;;;3.80;1.67;;;23.70;73.20;;;;;;5034739;28;20045;-76
2023/07/06 09:40:43;;;;;;;3.53;1.60;;;23.70;78.20;;;;;;5051314;28;20548;-75
2023/07/06 09:43:37;;;;;;;4.90;1.90;;;23.70;77.20;;;;;;5035546;28;20053;-75
2023/07/06 09:46:04;;;;;;;10.32;2.00;;;23.80;85.30;;;;;;5034285;28;20068;-81
2023/07/06 09:48:37;;;;;;;4.40;1.70;;;23.70;73.30;;;;;;5034157;28;20115;-74
2023/07/06 09:51:07;;;;;;;4.80;1.70;;;23.60;72.90;;;;;;5035098;28;20389;-71
2023/07/06 09:53:51;;;;;;;2.47;1.43;;;23.50;74.10;;;;;;5034454;28;20077;-70
2023/07/06 09:56:17;;;;;;;4.72;1.40;;;23.40;70.70;;;;;;5035404;28;20049;-71
2023/07/06 09:58:46;;;;;;;4.43;1.47;;;23.20;68.20;;;;;;5035546;28;20576;-71
2023/07/06 10:01:43;;;;;;;4.70;1.70;;;23.10;75.50;;;;;;5034926;28;20401;-73
2023/07/06 10:04:44;;;;;;;6.67;2.20;;;23.10;85.80;;;;;;5035264;28;20052;-72
2023/07/06 10:07:23;;;;;;;6.10;2.30;;;23.10;89.20;;;;;;5035181;28;20045;-71
2023/07/06 10:10:13;;;;;;;6.30;2.30;;;23.00;90.40;;;;;;5050120;28;20049;-70
2023/07/06 10:13:00;;;;;;;4.87;2.00;;;23.00;95.10;;;;;;5034414;28;20141;-71
2023/07/06 10:15:33;;;;;;;6.10;2.13;;;23.00;95.50;;;;;;5050794;28;20193;-73
2023/07/06 10:18:21;;;;;;;5.10;1.90;;;23.10;93.80;;;;;;5034984;28;20136;-72
2023/07/06 10:20:52;;;;;;;5.03;2.20;;;23.20;92.80;;;;;;5035481;28;20041;-70
2023/07/06 10:23:35;;;;;;;5.47;2.00;;;23.20;93.90;;;;;;5035036;28;20065;-66
2023/07/06 10:26:20;;;;;;;4.37;1.97;;;23.30;92.60;;;;;;5033866;28;20091;-71
2023/07/06 10:28:53;;;;;;;7.73;2.57;;;23.20;94.40;;;;;;5034862;28;20489;-72
2023/07/06 10:31:25;;;;;;;8.77;2.63;;;23.10;94.10;;;;;;5034725;28;20068;-71
2023/07/06 10:33:52;;;;;;;5.50;2.33;;;23.00;97.40;;;;;;5035076;28;20049;-71
2023/07/06 10:36:19;;;;;;;6.63;2.10;;;22.90;96.40;;;;;;5034640;28;20049;-72
2023/07/06 10:38:48;;;;;;;5.67;2.23;;;22.80;97.10;;;;;;5033928;28;20095;-71
2023/07/06 10:41:14;;;;;;;5.40;2.20;;;22.60;99.60;;;;;;5050175;28;20054;-71
2023/07/06 10:43:42;;;;;;;6.50;2.07;;;22.40;99.20;;;;;;5035014;28;20531;-71
2023/07/06 10:46:31;;;;;;;5.73;2.40;;;22.30;99.90;;;;;;5034432;28;20107;-71
2023/07/06 10:49:19;;;;;;;6.67;2.13;;;22.30;99.90;;;;;;5034674;28;20056;-73
2023/07/06 10:51:55;;;;;;;6.10;2.10;;;22.30;99.90;;;;;;5025320;28;20128;-68
2023/07/06 10:54:20;;;;;;;6.07;2.27;;;22.30;99.60;;;;;;5031872;28;20465;-70
2023/07/06 10:57:00;;;;;;;3.53;1.53;;;22.30;99.80;;;;;;5033907;28;20095;-68
2023/07/06 10:59:38;;;;;;;4.67;1.97;;;22.40;99.00;;;;;;5015486;28;20059;-71
2023/07/06 11:02:38;;;;;;;2.97;1.60;;;22.50;99.90;;;;;;5032363;28;20434;-72
2023/07/06 11:05:28;;;;;;;5.87;1.60;;;22.70;99.90;;;;;;5030662;28;20073;-72
2023/07/06 11:08:03;;;;;;;4.40;1.60;;;22.80;98.80;;;;;;5034588;28;20061;-71
2023/07/06 11:10:48;;;;;;;4.80;2.07;;;22.80;93.80;;;;;;5033937;28;20558;-71
2023/07/06 11:13:17;;;;;;;2.63;1.40;;;22.80;91.10;;;;;;5033838;28;20570;-71
2023/07/06 11:15:43;;;;;;;3.30;1.40;;;22.80;87.90;;;;;;5034181;28;20069;-71
2023/07/06 11:18:21;;;;;;;4.43;1.50;;;22.80;86.40;;;;;;5033615;28;20053;-71
2023/07/06 11:20:58;;;;;;;2.53;1.23;;;22.80;86.20;;;;;;5032917;28;20139;-71
2023/07/06 11:24:06;;;;;;;2.50;1.27;;;22.90;80.90;;;;;;5049014;28;20061;-71
2023/07/06 11:26:56;;;;;;;2.53;1.30;;;22.90;83.60;;;;;;5033104;28;20060;-71
2023/07/06 11:29:28;;;;;;;3.27;1.40;;;22.90;80.70;;;;;;5033890;28;20049;-71
2023/07/06 11:32:00;;;;;;;2.63;1.10;;;22.80;76.60;;;;;;5033669;28;20056;-71
2023/07/06 11:35:07;;;;;;;2.63;1.20;;;22.70;73.10;;;;;;5033197;28;20049;-74
2023/07/06 11:37:57;;;;;;;3.30;1.43;;;22.80;80.50;;;;;;5033731;28;20045;-69
2023/07/06 11:40:41;;;;;;;3.87;1.47;;;22.80;75.70;;;;;;5032486;28;20049;-69
2023/07/06 11:43:22;;;;;;;3.87;1.50;;;22.80;75.30;;;;;;5033695;28;20401;-75
2023/07/06 11:46:22;;;;;;;5.80;2.20;;;22.60;76.70;;;;;;5032798;28;20307;-73
2023/07/06 11:49:20;;;;;;;3.20;1.70;;;22.50;76.10;;;;;;5033419;28;20045;-70
2023/07/06 11:51:48;;;;;;;4.70;1.67;;;22.50;79.00;;;;;;5032674;28;20049;-70
2023/07/06 11:54:40;;;;;;;2.43;1.47;;;22.40;80.30;;;;;;5048677;28;20088;-71
2023/07/06 11:57:31;;;;;;;3.80;1.77;;;22.40;79.90;;;;;;5033460;28;20092;-70
2023/07/06 12:00:51;;;;;;;3.33;1.53;;;22.40;80.40;;;;;;5033279;28;20485;-70
2023/07/06 12:03:09;;;;;;;2.90;1.27;;;22.40;84.30;;;;;;5029738;28;20057;-70
2023/07/06 12:05:34;;;;;;;6.60;1.90;;;22.40;83.00;;;;;;5033200;28;20081;-70
2023/07/06 12:08:03;;;;;;;3.13;1.40;;;22.40;82.60;;;;;;5033262;28;20489;-68
2023/07/06 12:10:33;;;;;;;4.30;1.90;;;22.20;80.80;;;;;;5032851;28;20038;-73
2023/07/06 12:12:58;;;;;;;2.93;1.40;;;22.20;80.80;;;;;;5033124;28;20049;-72
2023/07/06 12:15:24;;;;;;;4.33;1.50;;;22.20;83.40;;;;;;5032923;28;20049;-73
2023/07/06 12:17:55;;;;;;;2.87;1.30;;;22.30;82.50;;;;;;5033355;28;20060;-73
2023/07/06 12:20:25;;;;;;;4.23;1.70;;;22.30;79.60;;;;;;5032969;28;20100;-73
2023/07/06 12:22:57;;;;;;;3.50;1.57;;;22.30;82.00;;;;;;5032597;28;20061;-72
2023/07/06 12:25:25;;;;;;;3.73;1.50;;;22.30;83.80;;;;;;5032663;28;20081;-71
2023/07/06 12:28:01;;;;;;;3.80;1.50;;;22.40;80.60;;;;;;5033181;28;20370;-70
2023/07/06 12:30:33;;;;;;;2.63;1.40;;;22.50;84.70;;;;;;5032603;28;20106;-71
2023/07/06 12:33:13;;;;;;;3.17;1.30;;;22.50;77.00;;;;;;5047602;28;20049;-68
2023/07/06 12:35:40;;;;;;;4.03;2.03;;;22.40;82.70;;;;;;5033114;28;20056;-69
2023/07/06 12:38:11;;;;;;;4.23;1.43;;;22.40;79.50;;;;;;5031553;28;20454;-69
2023/07/06 12:40:38;;;;;;;4.27;1.20;;;22.50;80.30;;;;;;5032561;28;20045;-70
2023/07/06 12:43:04;;;;;;;4.37;1.60;;;22.40;78.60;;;;;;5031740;28;20045;-70
2023/07/06 12:45:31;;;;;;;3.50;1.50;;;22.40;80.60;;;;;;5032482;28;20054;-70
2023/07/06 12:48:00;;;;;;;3.33;1.33;;;22.40;81.00;;;;;;5032692;28;20044;-70
2023/07/06 12:50:35;;;;;;;6.00;1.80;;;22.40;81.80;;;;;;5032136;28;20493;-70
2023/07/06 12:53:05;;;;;;;5.13;1.77;;;22.40;86.60;;;;;;5032971;28;20167;-70
2023/07/06 12:55:32;;;;;;;3.37;1.50;;;22.50;83.80;;;;;;5032368;28;20050;-70
2023/07/06 12:58:15;;;;;;;4.17;1.90;;;22.50;83.30;;;;;;5032369;28;20132;-71
2023/07/06 13:00:40;;;;;;;3.83;1.90;;;22.40;89.80;;;;;;5032307;28;20410;-71